Aérodrome :
LOGIN :

S'inscrire | Disclaimer

   EN    FR    IT 

 










Légende :    VFR   VFR Marginal   IFR   IFR Intensif   IFR Très Intensif
Visi : 
Plafond : 
>= 8 km
>= 3000ft
5 à 8 km
1000 à 3000 ft
1500m à 5 km
500 à 1000 ft
800 à 1500m
200 à 500 ft
< 800m
< 200 ft
Symboles :   Orages  Brouillard  Fortes neiges  Fortes précipitations  Vent > 20 kt
SIGMETs :   Divers  Orages  Givrage  Turbulence  Onde Orograph.  Cendres Volcan.






- Altitude de l'aérodrome : 144 ft
- Code IATA : PGF


LFMP - Perpignan

DERNIER METAR :
  • 220400Z AUTO 09019G29KT 7000 RA BKN018/// OVC024/// ///CB 12/10 Q1024 TEMPO 4000 TSRA

METARs EXPIRÉS :
  • 220330Z AUTO 08020KT 9999 -RA OVC024/// ///CB 13/09 Q1024 TEMPO 10020G35KT 4000 TSRA
  • 220300Z AUTO 08021G32KT 9999 -RA BKN025/// BKN031/// OVC038/// ///CB 13/09 Q1025 TEMPO 4000 TSRA
  • 220230Z AUTO 08021G33KT 9999 OVC027/// ///CB 13/09 Q1025
  • 220200Z AUTO 08020KT 9999 BKN030/// OVC038/// ///CB 13/09 Q1025
  • 220130Z AUTO 06017KT 9999 -RA FEW030/// OVC037/// ///CB 12/09 Q1026

TAF TAF LFMP
Valide du 22 à 03h jusqu'au 23 à 03h UTC


220200Z 2203/2303 08015KT 9999 BKN030
TEMPO 2203/2303 10020G35KT RA OVC025
PROB40
TEMPO 2203/2212 4000 TSRA SCT020CB OVC026
ATIS : +33 4 68 63 75 12



MET'MAP, la Météo Aéronautique d'un coup d'oeil ! - Copyright ORBIFLY Décembre 2007 - Disclaimer

ORBIFLY MET'MAP TEAM :

Programmation & Développement : Alexandra Zaïnal
Sur une idée originale de : Baudouin d'Aumeries
Assistance à la programmation : Marc-Olivier Méhu
Soutien technique & logistique : Manuel Goepfert

Contact : metmap@orbifly.com




SOURCES & CREDITS :

   NOAA